createdAt,value
2018-05-17T03:44:57.730Z,988.21
2018-05-17T03:47:51.527Z,988.15
2018-05-17T03:52:33.182Z,988.22
2018-05-17T03:53:33.936Z,988.17
2018-05-17T04:02:43.245Z,988.25
2018-05-17T04:05:02.613Z,988.37
2018-05-17T04:06:02.711Z,988.36
2018-05-17T04:07:05.742Z,988.41
2018-05-17T04:08:30.200Z,988.46
2018-05-17T04:09:09.957Z,988.43
2018-05-17T04:10:05.508Z,988.42
2018-05-17T04:27:36.522Z,988.66
2018-05-17T04:28:35.010Z,988.71
2018-05-17T04:29:35.751Z,988.68
2018-05-17T04:30:37.294Z,988.70
2018-05-17T04:31:35.722Z,988.72
2018-05-17T04:32:37.982Z,988.70
2018-05-17T04:33:36.129Z,988.74
2018-05-17T04:36:09.148Z,988.79
2018-05-17T04:37:10.639Z,988.82
2018-05-17T04:38:09.572Z,988.85
2018-05-17T04:39:10.236Z,988.82
2018-05-17T04:40:09.734Z,988.81
2018-05-17T04:41:11.162Z,988.83
2018-05-17T04:42:10.156Z,988.85
2018-05-17T04:43:11.647Z,988.89
2018-05-17T04:44:11.126Z,988.88
2018-05-17T04:45:10.687Z,988.89
2018-05-17T04:46:26.319Z,988.95
2018-05-17T04:47:13.526Z,988.93
2018-05-17T04:48:08.971Z,988.95
2018-05-17T04:49:14.571Z,988.96
2018-05-17T04:50:09.276Z,988.93
2018-05-17T04:51:09.028Z,988.90
2018-05-17T04:52:10.037Z,988.97
2018-05-17T04:53:16.431Z,988.98
2018-05-17T04:54:10.828Z,988.95
2018-05-17T04:55:11.019Z,988.95
2018-05-17T04:56:09.893Z,989.00
2018-05-17T04:57:10.064Z,988.98
2018-05-17T04:58:11.052Z,989.01
2018-05-17T04:59:10.475Z,989.01
2018-05-17T05:00:10.926Z,989.03
2018-05-17T05:01:10.841Z,989.07
2018-05-17T05:02:11.363Z,989.08
2018-05-17T05:03:11.794Z,989.10
2018-05-17T05:04:12.258Z,989.10
2018-05-17T05:05:11.655Z,989.06
2018-05-17T05:06:14.023Z,989.09
2018-05-17T05:07:12.655Z,989.10
2018-05-17T05:08:12.236Z,989.13
2018-05-17T05:09:12.236Z,989.00
2018-05-17T05:10:12.466Z,989.11
2018-05-17T05:11:14.062Z,989.13
2018-05-17T05:14:12.152Z,989.13
2018-05-17T05:15:08.896Z,989.15
2018-05-17T05:16:10.378Z,989.09
2018-05-17T05:17:11.386Z,989.12
2018-05-17T05:19:10.760Z,989.07
2018-05-17T05:20:10.260Z,989.13
2018-05-17T05:21:11.230Z,989.16
2018-05-17T05:22:08.239Z,989.18
2018-05-17T05:23:09.063Z,989.20
2018-05-17T05:24:08.655Z,989.22
2018-05-17T05:25:08.558Z,989.22
2018-05-17T05:26:09.167Z,989.24
2018-05-17T05:27:10.213Z,989.19
2018-05-17T05:28:09.221Z,989.21
2018-05-17T05:29:10.433Z,989.24
2018-05-17T05:30:09.833Z,989.26
2018-05-17T05:31:09.576Z,989.20
2018-05-17T05:32:09.787Z,989.25
2018-05-17T05:33:10.486Z,989.25
2018-05-17T05:34:09.991Z,989.31
2018-05-17T05:35:11.213Z,989.27
2018-05-17T05:36:12.987Z,989.28
2018-05-17T05:37:10.710Z,989.28
2018-05-17T05:38:11.254Z,989.32
2018-05-17T05:39:11.004Z,989.25
2018-05-17T05:40:11.139Z,989.29
2018-05-17T05:41:11.309Z,989.31
2018-05-17T05:42:11.539Z,989.30
2018-05-17T05:43:11.876Z,989.31
2018-05-17T05:44:11.789Z,989.33
2018-05-17T05:45:11.972Z,989.33
2018-05-17T05:46:12.111Z,989.36
2018-05-17T05:47:19.144Z,989.37
2018-05-17T05:48:12.533Z,989.40
2018-05-17T05:49:12.693Z,989.35
2018-05-17T05:50:12.947Z,989.39
2018-05-17T05:51:13.015Z,989.37
2018-05-17T05:52:13.189Z,989.35
2018-05-17T05:53:13.551Z,989.38
2018-05-17T05:54:13.572Z,989.36
2018-05-17T05:55:13.588Z,989.39
2018-05-17T05:56:13.846Z,989.41
2018-05-17T05:57:15.134Z,989.44
2018-05-17T05:58:15.209Z,989.38
2018-05-17T06:00:49.711Z,989.46
2018-05-17T06:08:19.569Z,989.51
2018-05-17T06:13:08.005Z,989.53
2018-05-17T06:20:50.155Z,989.65
2018-05-17T06:22:52.589Z,989.64
2018-05-17T06:23:51.683Z,989.67
2018-05-17T06:24:50.761Z,989.66
2018-05-17T06:25:49.335Z,989.66
2018-05-17T06:26:49.366Z,989.64
2018-05-17T06:27:49.488Z,989.65
2018-05-17T06:28:49.593Z,989.66
2018-05-17T06:29:49.845Z,989.68
2018-05-17T06:30:50.107Z,989.72
2018-05-17T06:31:50.175Z,989.68
2018-05-17T06:32:50.410Z,989.70
2018-05-17T06:33:50.520Z,989.72
2018-05-17T06:34:50.748Z,989.74
2018-05-17T06:35:50.956Z,989.78
2018-05-17T06:36:51.011Z,989.75
2018-05-17T06:37:51.223Z,989.77
2018-05-17T06:38:51.383Z,989.81
2018-05-17T06:39:51.531Z,989.80
2018-05-17T06:40:51.776Z,989.79
2018-05-17T06:41:51.976Z,989.77
2018-05-17T06:42:52.044Z,989.78
2018-05-17T06:43:52.233Z,989.79
2018-05-17T06:44:52.424Z,989.83
2018-05-17T06:45:52.530Z,989.78
2018-05-17T06:46:52.658Z,989.80
2018-05-17T06:47:52.901Z,989.83
2018-05-17T06:48:53.028Z,989.83
2018-05-17T06:49:53.168Z,989.85
2018-05-17T06:50:53.375Z,989.83
2018-05-17T06:51:53.978Z,989.84
2018-05-17T06:52:54.405Z,989.86
2018-05-17T06:53:54.428Z,989.85
2018-05-17T06:54:54.250Z,989.84
2018-05-17T06:55:56.401Z,989.80
2018-05-17T06:56:54.460Z,989.83
2018-05-17T06:57:54.752Z,989.79
2018-05-17T06:58:54.857Z,989.79
2018-05-17T06:59:54.990Z,989.76
2018-05-17T07:00:55.665Z,989.80
2018-05-17T07:01:55.353Z,989.76
2018-05-17T07:02:55.740Z,989.74
2018-05-17T07:03:55.705Z,989.79
2018-05-17T07:04:55.833Z,989.78
2018-05-17T07:05:56.046Z,989.82
2018-05-17T07:06:56.419Z,989.78
2018-05-17T07:07:56.871Z,989.81
2018-05-17T07:08:56.748Z,989.81
2018-05-17T07:09:57.273Z,989.82
2018-05-17T07:10:57.271Z,989.84
2018-05-17T07:11:57.804Z,989.87
2018-05-17T07:12:57.614Z,989.82
2018-05-17T07:13:57.713Z,989.86
2018-05-17T07:14:57.875Z,989.85
2018-05-17T07:15:58.405Z,989.86
2018-05-17T07:16:59.077Z,989.85
2018-05-17T07:17:58.841Z,989.84
2018-05-17T07:18:58.607Z,989.86
2018-05-17T07:19:58.800Z,989.86
2018-05-17T07:20:59.121Z,989.86
2018-05-17T07:21:58.960Z,989.86
2018-05-17T07:22:59.473Z,989.82
2018-05-17T07:23:59.315Z,989.85
2018-05-17T07:24:59.986Z,989.88
2018-05-17T07:26:00.536Z,989.90
2018-05-17T07:27:00.089Z,989.91
2018-05-17T07:28:00.387Z,989.93
2018-05-17T07:29:00.163Z,989.95
2018-05-17T07:30:02.417Z,989.94
2018-05-17T07:31:01.080Z,989.93
2018-05-17T07:32:00.872Z,989.94
2018-05-17T07:33:00.976Z,989.98
2018-05-17T07:34:01.369Z,989.96
2018-05-17T07:35:01.717Z,989.91
2018-05-17T07:36:02.095Z,989.94
2018-05-17T07:37:02.109Z,989.92
2018-05-17T07:38:02.088Z,989.95
2018-05-17T07:39:02.740Z,989.96
2018-05-17T07:40:02.313Z,990.01
2018-05-17T07:41:02.562Z,989.99
2018-05-17T07:42:02.769Z,990.01
2018-05-17T07:43:02.846Z,990.00
2018-05-17T07:44:02.922Z,990.04
2018-05-17T07:45:03.337Z,990.07
2018-05-17T07:46:03.317Z,990.04
2018-05-17T07:47:03.452Z,990.07
2018-05-17T07:48:03.665Z,990.11
2018-05-17T07:50:04.153Z,990.02
2018-05-17T07:51:04.415Z,990.16
2018-05-17T07:52:04.925Z,990.09
2018-05-17T07:53:04.680Z,990.11
2018-05-17T07:54:04.698Z,990.11
2018-05-17T07:55:04.776Z,990.14
2018-05-17T07:56:05.309Z,990.13
2018-05-17T07:57:05.319Z,990.13
2018-05-17T07:58:05.474Z,990.17
2018-05-17T07:59:05.539Z,990.14
2018-05-17T08:00:05.785Z,990.14
2018-05-17T08:01:06.273Z,990.19
2018-05-17T08:02:06.216Z,990.15
2018-05-17T08:03:06.591Z,990.20
2018-05-17T08:04:06.712Z,990.19
2018-05-17T08:05:07.353Z,990.25
2018-05-17T08:06:06.913Z,990.25
2018-05-17T08:07:07.268Z,990.23
2018-05-17T08:08:07.473Z,990.25
2018-05-17T08:09:07.666Z,990.25
2018-05-17T08:10:07.859Z,990.23
2018-05-17T08:11:08.212Z,990.20
2018-05-17T08:12:08.914Z,990.25
2018-05-17T08:13:08.540Z,990.22
2018-05-17T08:14:08.364Z,990.19
2018-05-17T08:15:08.840Z,990.24
2018-05-17T08:16:09.117Z,990.19
2018-05-17T08:17:09.600Z,990.21
2018-05-17T08:18:09.461Z,990.19
2018-05-17T08:19:09.540Z,990.20
2018-05-17T08:20:09.970Z,990.25
2018-05-17T08:21:09.941Z,990.24
2018-05-17T08:22:10.085Z,990.21
2018-05-17T08:23:10.423Z,990.23
2018-05-17T08:24:10.419Z,990.24
2018-05-17T08:25:10.686Z,990.31
2018-05-17T08:26:10.620Z,990.26
2018-05-17T08:27:10.999Z,990.30
2018-05-17T08:28:12.166Z,990.32
2018-05-17T08:29:11.124Z,990.30
2018-05-17T08:30:11.502Z,990.33
2018-05-17T08:31:11.730Z,990.35
2018-05-17T08:32:11.892Z,990.31
2018-05-17T08:33:12.057Z,990.32
2018-05-17T08:34:12.307Z,990.33
2018-05-17T08:35:12.734Z,990.32
2018-05-17T08:36:12.757Z,990.35
2018-05-17T08:37:12.788Z,990.39
2018-05-17T08:38:13.282Z,990.36
2018-05-17T08:39:13.148Z,990.39
2018-05-17T08:40:13.309Z,990.43
2018-05-17T08:41:13.677Z,990.40
2018-05-17T08:42:13.724Z,990.39
2018-05-17T08:43:13.736Z,990.44
2018-05-17T08:44:14.134Z,990.38
2018-05-17T08:45:14.192Z,990.44
2018-05-17T08:46:14.378Z,990.43
2018-05-17T08:47:14.768Z,990.42
2018-05-17T08:48:14.932Z,990.41
2018-05-17T08:49:15.163Z,990.38
2018-05-17T08:50:15.200Z,990.43
2018-05-17T08:51:15.346Z,990.42
2018-05-17T08:52:15.504Z,990.42
2018-05-17T08:53:15.696Z,990.45
2018-05-17T08:54:15.711Z,990.41
2018-05-17T08:55:15.937Z,990.46
2018-05-17T08:56:15.965Z,990.47
2018-05-17T08:57:16.129Z,990.46
2018-05-17T08:58:16.317Z,990.45
2018-05-17T08:59:16.597Z,990.48
2018-05-17T09:00:16.664Z,990.51
2018-05-17T09:01:16.839Z,990.50
2018-05-17T09:02:17.169Z,990.49
2018-05-17T09:03:17.412Z,990.47
2018-05-17T09:04:17.594Z,990.48
2018-05-17T09:05:17.859Z,990.50
2018-05-17T09:07:17.869Z,990.45
2018-05-17T09:08:18.042Z,990.45
2018-05-17T09:09:18.328Z,990.45
2018-05-17T09:10:18.408Z,990.43
2018-05-17T09:11:18.707Z,990.41
2018-05-17T09:12:18.843Z,990.42
2018-05-17T09:13:19.006Z,990.38
2018-05-17T09:14:19.186Z,990.42
2018-05-17T09:15:19.354Z,990.43
2018-05-17T09:16:19.509Z,990.42
2018-05-17T09:17:19.963Z,990.41
2018-05-17T09:18:19.966Z,990.39
2018-05-17T09:19:20.350Z,990.43
2018-05-17T09:20:20.344Z,990.39
2018-05-17T09:21:20.315Z,990.42
2018-05-17T09:22:20.465Z,990.46
2018-05-17T09:23:22.555Z,990.43
2018-05-17T09:24:20.764Z,990.46
2018-05-17T09:25:21.060Z,990.51
2018-05-17T09:26:21.143Z,990.52
2018-05-17T09:27:21.350Z,990.51
2018-05-17T09:28:21.667Z,990.50
2018-05-17T09:29:21.871Z,990.51
2018-05-17T09:30:22.977Z,990.47
2018-05-17T09:31:22.359Z,990.47
2018-05-17T09:32:22.733Z,990.48
2018-05-17T09:33:23.278Z,990.50
2018-05-17T09:34:23.804Z,990.50
2018-05-17T09:35:23.758Z,990.54
2018-05-17T09:36:23.466Z,990.52
2018-05-17T09:37:23.416Z,990.54
2018-05-17T09:38:23.345Z,990.53
2018-05-17T09:39:23.792Z,990.56
2018-05-17T09:40:24.032Z,990.56
2018-05-17T09:43:21.735Z,990.72
2018-05-17T10:05:24.819Z,990.80
2018-05-17T10:44:46.228Z,990.95
2018-05-17T10:45:47.411Z,990.88
2018-05-17T10:46:45.698Z,990.86
2018-05-17T10:47:45.234Z,991.00
2018-05-17T10:48:45.394Z,990.89
2018-05-17T10:49:45.422Z,990.89
2018-05-17T10:50:45.667Z,990.89
2018-05-17T10:51:45.795Z,990.94
2018-05-17T10:52:45.983Z,991.77
2018-05-17T10:53:46.145Z,991.23
2018-05-17T10:54:46.257Z,991.58
2018-05-17T10:55:46.469Z,991.10
2018-05-17T10:56:46.619Z,991.47
2018-05-17T10:57:46.790Z,991.08
2018-05-17T10:58:46.975Z,991.62
2018-05-17T10:59:47.105Z,991.57
2018-05-17T11:00:47.206Z,991.05
2018-05-17T11:01:47.478Z,992.02
2018-05-17T11:02:47.642Z,992.12
2018-05-17T11:03:47.831Z,992.15
2018-05-17T11:04:48.089Z,991.90
2018-05-17T11:05:48.236Z,991.87
2018-05-17T11:06:48.421Z,991.82
2018-05-17T11:07:48.573Z,991.53
2018-05-17T11:08:48.729Z,991.36
2018-05-17T11:09:48.970Z,991.36
2018-05-17T11:10:49.007Z,991.28
2018-05-17T11:11:49.155Z,991.37
2018-05-17T11:12:49.314Z,991.59
2018-05-17T11:13:49.511Z,991.54
2018-05-17T11:14:49.653Z,991.53
2018-05-17T11:15:49.793Z,991.51
2018-05-17T11:16:50.049Z,991.49
2018-05-17T11:17:50.136Z,991.38
2018-05-17T11:18:50.382Z,991.19
2018-05-17T11:19:50.502Z,991.36
2018-05-17T11:20:50.728Z,991.38
2018-05-17T11:21:50.892Z,991.36
2018-05-17T11:22:51.069Z,991.34
2018-05-17T11:23:51.275Z,991.38
2018-05-17T11:24:51.306Z,991.23
2018-05-17T11:25:51.533Z,991.23
2018-05-17T11:26:51.739Z,991.15
2018-05-17T11:27:51.916Z,991.19
2018-05-17T11:28:52.202Z,991.18
2018-05-17T11:29:52.351Z,991.10
2018-05-17T11:30:52.568Z,991.06
2018-05-17T11:31:52.636Z,990.98
2018-05-17T11:32:52.973Z,991.06
2018-05-17T11:33:53.144Z,991.01
2018-05-17T11:34:53.208Z,990.95
2018-05-17T11:35:53.364Z,990.92
2018-05-17T11:36:53.584Z,990.98
2018-05-17T11:37:53.708Z,990.98
2018-05-17T11:38:53.888Z,990.93
2018-05-17T11:39:53.976Z,991.14
2018-05-17T11:40:54.255Z,991.21
2018-05-17T11:41:54.422Z,991.33
2018-05-17T11:42:54.709Z,991.27
2018-05-17T11:43:54.802Z,991.16
2018-05-17T11:44:54.924Z,991.12
2018-05-17T11:45:55.123Z,991.12
2018-05-17T11:46:55.292Z,991.27
2018-05-17T11:47:55.399Z,991.38
2018-05-17T11:48:55.611Z,991.44
2018-05-17T11:49:55.936Z,991.39
2018-05-17T11:50:56.078Z,991.46
2018-05-17T11:51:56.261Z,991.43
2018-05-17T11:52:57.361Z,991.39
2018-05-17T11:53:56.738Z,991.32
2018-05-17T11:54:56.740Z,991.31
2018-05-17T11:55:56.935Z,991.30
2018-05-17T11:56:57.084Z,991.20
2018-05-17T11:57:57.278Z,991.18
2018-05-17T11:58:57.478Z,991.21
2018-05-17T11:59:57.677Z,991.31
2018-05-17T12:00:57.900Z,991.25
2018-05-17T12:01:58.044Z,991.18
2018-05-17T12:02:58.174Z,991.27
2018-05-17T12:03:58.403Z,991.32
2018-05-17T12:04:58.549Z,991.44
2018-05-17T12:05:58.695Z,991.46
2018-05-17T12:06:58.885Z,991.48
2018-05-17T12:07:58.990Z,991.40
2018-05-17T12:08:59.149Z,991.32
2018-05-17T12:09:59.415Z,991.22
2018-05-17T12:10:59.609Z,991.21
2018-05-17T12:11:59.760Z,991.23
2018-05-17T12:12:59.902Z,991.30
2018-05-17T12:14:00.109Z,991.43
2018-05-17T12:15:00.223Z,991.48
2018-05-17T12:16:00.491Z,991.45
2018-05-17T12:17:00.666Z,991.35
2018-05-17T12:18:00.786Z,991.22
2018-05-17T12:19:00.899Z,991.18
2018-05-17T12:20:01.054Z,991.01
2018-05-17T12:21:01.302Z,991.05
2018-05-17T12:22:01.466Z,990.98
2018-05-17T12:23:01.717Z,991.04
2018-05-17T12:24:01.898Z,991.05
2018-05-17T12:25:02.066Z,991.03
2018-05-17T12:26:02.172Z,991.01
2018-05-17T12:27:02.477Z,990.94
2018-05-17T12:28:02.525Z,990.99
2018-05-17T12:29:02.702Z,990.90
2018-05-17T12:30:02.887Z,990.95
2018-05-17T12:31:03.153Z,990.97
2018-05-17T12:32:03.256Z,990.97
2018-05-17T12:33:03.463Z,990.95
2018-05-17T12:34:03.851Z,990.97
2018-05-17T12:35:03.785Z,990.99
2018-05-17T12:36:03.984Z,991.02
2018-05-17T12:37:04.240Z,991.01
2018-05-17T12:38:04.383Z,991.03
2018-05-17T12:39:04.497Z,991.03
2018-05-17T12:40:04.828Z,991.06
2018-05-17T12:41:04.883Z,991.01
2018-05-17T12:42:05.052Z,991.00
2018-05-17T12:43:05.234Z,991.04
2018-05-17T12:44:05.469Z,991.03
2018-05-17T12:45:05.670Z,990.95
2018-05-17T12:46:05.782Z,990.94
2018-05-17T12:47:05.949Z,990.95
2018-05-17T12:48:06.130Z,990.90
2018-05-17T12:49:06.315Z,990.89
2018-05-17T12:50:06.547Z,990.91
2018-05-17T12:51:06.912Z,990.93
2018-05-17T12:52:06.927Z,990.88
2018-05-17T12:53:07.051Z,990.88
2018-05-17T12:54:07.216Z,990.76
2018-05-17T12:55:07.352Z,990.81
2018-05-17T12:56:07.517Z,990.73
2018-05-17T12:57:07.728Z,990.72
2018-05-17T12:58:07.847Z,990.68
2018-05-17T12:59:08.087Z,990.72
2018-05-17T13:00:08.266Z,990.80
2018-05-17T13:01:08.442Z,990.70
2018-05-17T13:02:08.603Z,990.67
2018-05-17T13:03:08.693Z,990.73
2018-05-17T13:04:08.964Z,990.78
2018-05-17T13:05:09.224Z,990.83
2018-05-17T13:06:09.998Z,990.85
2018-05-17T13:07:10.122Z,990.87
2018-05-17T13:13:27.318Z,990.78
2018-05-17T13:14:05.039Z,990.81
2018-05-17T13:19:08.540Z,990.76
2018-05-17T13:32:52.498Z,990.74
2018-05-17T13:33:15.420Z,990.87
2018-05-17T13:42:53.666Z,990.85
2018-05-17T14:02:23.071Z,990.96
2018-05-17T14:05:32.915Z,990.97
2018-05-17T14:07:27.738Z,990.97
2018-05-17T14:14:27.542Z,990.96
2018-05-17T14:22:17.415Z,990.90
2018-05-17T14:28:03.694Z,990.94
2018-05-17T14:33:32.372Z,990.91
2018-05-17T14:52:58.371Z,990.90
2018-05-17T15:09:54.731Z,990.83
2018-05-17T15:11:28.772Z,990.87
2018-05-17T15:13:46.530Z,990.89
2018-05-17T15:30:54.010Z,990.84
2018-05-17T15:32:45.162Z,990.89
2018-05-17T15:47:25.369Z,990.85
2018-05-17T15:49:01.610Z,990.81
2018-05-17T15:50:09.551Z,990.85
2018-05-17T15:51:54.505Z,990.81
2018-05-17T15:52:01.399Z,990.86
2018-05-17T16:03:27.602Z,990.85
2018-05-17T16:14:26.004Z,990.71
2018-05-17T16:25:55.694Z,990.69
2018-05-17T16:44:04.427Z,990.65
2018-05-17T16:46:16.619Z,990.64
2018-05-17T16:47:45.626Z,990.67
2018-05-17T16:59:57.825Z,990.83
2018-05-17T17:05:27.296Z,990.74
2018-05-17T18:00:50.964Z,990.75
2018-05-17T18:01:50.008Z,990.74
2018-05-17T18:03:51.032Z,990.77
2018-05-17T18:04:53.236Z,990.78
2018-05-17T18:05:51.023Z,990.78
2018-05-17T18:06:48.413Z,990.78
2018-05-17T20:14:54.682Z,991.58
2018-05-17T20:15:25.953Z,991.54
2018-05-17T21:23:43.667Z,991.90
2018-05-17T21:36:00.693Z,991.95
2018-05-17T21:37:06.481Z,991.95
